createdAt,value
2017-09-08T00:00:08.335Z,0.00
2017-09-08T00:01:08.297Z,0.00
2017-09-08T00:02:08.265Z,0.00
2017-09-08T00:03:08.233Z,0.00
2017-09-08T00:04:08.213Z,0.00
2017-09-08T00:05:08.163Z,0.00
2017-09-08T00:06:08.133Z,0.00
2017-09-08T00:07:08.103Z,0.00
2017-09-08T00:08:08.073Z,0.00
2017-09-08T00:09:08.026Z,0.00
2017-09-08T00:10:07.996Z,0.00
2017-09-08T00:11:07.959Z,0.00
2017-09-08T00:12:07.938Z,0.00
2017-09-08T00:13:07.938Z,0.00
2017-09-08T00:14:07.858Z,0.00
2017-09-08T00:15:07.828Z,0.00
2017-09-08T00:16:07.827Z,0.00
2017-09-08T00:17:07.757Z,0.00
2017-09-08T00:18:07.728Z,0.00
2017-09-08T00:19:07.687Z,0.00
2017-09-08T00:20:07.689Z,0.00
2017-09-08T00:21:07.623Z,0.00
2017-09-08T00:22:07.585Z,0.00
2017-09-08T00:23:07.557Z,0.00
2017-09-08T00:24:07.518Z,0.00
2017-09-08T00:25:07.486Z,0.00
2017-09-08T00:26:07.500Z,0.00
2017-09-08T00:27:07.443Z,0.00
2017-09-08T00:28:07.386Z,0.00
2017-09-08T00:29:07.346Z,0.00
2017-09-08T00:30:07.317Z,0.00
2017-09-08T00:31:07.282Z,0.00
2017-09-08T00:32:07.245Z,0.00
2017-09-08T00:33:07.212Z,0.00
2017-09-08T00:34:07.173Z,0.00
2017-09-08T00:35:07.145Z,0.00
2017-09-08T00:36:07.113Z,0.00
2017-09-08T00:37:07.075Z,0.00
2017-09-08T00:38:07.041Z,0.00
2017-09-08T00:39:07.005Z,0.00
2017-09-08T00:40:06.972Z,0.00
2017-09-08T00:41:06.943Z,0.00
2017-09-08T00:42:06.902Z,0.00
2017-09-08T00:43:06.870Z,0.00
2017-09-08T00:44:06.836Z,0.00
2017-09-08T00:45:06.823Z,0.00
2017-09-08T00:46:06.768Z,0.00
2017-09-08T00:47:06.733Z,0.00
2017-09-08T00:48:06.699Z,0.00
2017-09-08T00:49:06.675Z,0.00
2017-09-08T00:50:06.633Z,0.00
2017-09-08T00:51:06.599Z,0.00
2017-09-08T00:52:06.562Z,0.00
2017-09-08T00:53:06.537Z,0.00
2017-09-08T00:54:06.493Z,0.00
2017-09-08T00:55:06.460Z,0.00
2017-09-08T00:56:06.423Z,0.00
2017-09-08T00:57:06.402Z,0.00
2017-09-08T00:58:06.353Z,0.00
2017-09-08T00:59:06.324Z,0.00
2017-09-08T01:00:06.295Z,0.00
2017-09-08T01:01:06.253Z,0.00
2017-09-08T01:02:06.220Z,0.00
2017-09-08T01:03:06.184Z,0.00
2017-09-08T01:04:06.152Z,0.00
2017-09-08T01:05:06.116Z,0.00
2017-09-08T01:06:13.236Z,0.00
2017-09-08T01:07:58.921Z,0.00
2017-09-08T01:09:05.990Z,0.00
2017-09-08T01:10:58.832Z,0.00
2017-09-08T01:11:58.800Z,0.00
2017-09-08T01:13:44.472Z,0.00
2017-09-08T01:14:44.433Z,0.00
2017-09-08T01:16:37.591Z,0.00
2017-09-08T01:17:37.278Z,0.00
2017-09-08T01:19:30.116Z,0.00
2017-09-08T01:20:30.084Z,0.00
2017-09-08T01:22:22.916Z,0.00
2017-09-08T01:23:22.865Z,0.00
2017-09-08T01:25:15.687Z,0.00
2017-09-08T01:26:15.644Z,0.00
2017-09-08T01:28:08.494Z,0.00
2017-09-08T01:29:08.433Z,0.00
2017-09-08T01:31:01.255Z,0.00
2017-09-08T01:32:01.217Z,0.00
2017-09-08T01:33:54.319Z,0.00
2017-09-08T01:34:53.998Z,0.00
2017-09-08T01:36:46.848Z,0.00
2017-09-08T01:37:46.801Z,0.00
2017-09-08T01:39:39.633Z,0.00
2017-09-08T01:40:39.582Z,0.00
2017-09-08T01:42:32.404Z,0.00
2017-09-08T01:43:32.367Z,0.00
2017-09-08T01:45:25.196Z,0.00
2017-09-08T01:46:25.145Z,0.00
2017-09-08T01:48:17.970Z,0.00
2017-09-08T01:49:17.932Z,0.00
2017-09-08T01:51:11.033Z,0.00
2017-09-08T01:52:10.717Z,0.00
2017-09-08T01:54:04.128Z,0.00
2017-09-08T01:55:03.684Z,0.00
2017-09-08T01:56:56.517Z,0.00
2017-09-08T01:57:56.470Z,0.00
2017-09-08T01:59:49.294Z,0.00
2017-09-08T02:00:49.250Z,0.00
2017-09-08T02:02:42.082Z,0.00
2017-09-08T02:03:42.030Z,0.00
2017-09-08T02:05:34.849Z,0.00
2017-09-08T02:06:34.814Z,0.00
2017-09-08T02:08:27.966Z,0.00
2017-09-08T02:09:27.653Z,0.00
2017-09-08T02:11:20.469Z,0.00
2017-09-08T02:12:20.434Z,0.00
2017-09-08T02:14:13.261Z,0.00
2017-09-08T02:15:13.222Z,0.00
2017-09-08T02:17:06.051Z,0.00
2017-09-08T02:18:05.997Z,0.00
2017-09-08T02:19:58.828Z,0.00
2017-09-08T02:20:58.776Z,0.00
2017-09-08T02:22:51.599Z,0.00
2017-09-08T02:23:51.563Z,0.00
2017-09-08T02:25:44.394Z,0.00
2017-09-08T02:26:44.341Z,0.00
2017-09-08T02:28:37.177Z,0.00
2017-09-08T02:29:37.141Z,0.00
2017-09-08T02:31:29.967Z,0.00
2017-09-08T02:32:29.919Z,0.00
2017-09-08T02:34:22.738Z,0.00
2017-09-08T02:35:22.700Z,0.00
2017-09-08T02:37:15.529Z,0.00
2017-09-08T02:38:22.610Z,0.00
2017-09-08T02:40:15.429Z,0.00
2017-09-08T02:41:08.264Z,0.00
2017-09-08T02:43:08.483Z,0.00
2017-09-08T02:44:01.043Z,0.00
2017-09-08T02:45:53.891Z,0.00
2017-09-08T02:46:53.825Z,0.00
2017-09-08T02:48:46.674Z,0.00
2017-09-08T02:49:46.604Z,0.00
2017-09-08T02:51:39.424Z,0.00
2017-09-08T02:52:39.388Z,0.00
2017-09-08T02:54:32.211Z,0.00
2017-09-08T02:55:32.166Z,0.00
2017-09-08T02:57:24.987Z,0.00
2017-09-08T02:58:24.952Z,0.00
2017-09-08T03:00:18.048Z,0.00
2017-09-08T03:01:17.727Z,0.00
2017-09-08T03:03:10.547Z,0.00
2017-09-08T03:04:10.508Z,0.00
2017-09-08T03:06:03.344Z,0.00
2017-09-08T03:07:03.302Z,0.00
2017-09-08T03:08:56.119Z,0.00
2017-09-08T03:09:56.083Z,0.00
2017-09-08T03:11:49.181Z,0.00
2017-09-08T03:12:48.880Z,0.00
2017-09-08T03:14:41.686Z,0.00
2017-09-08T03:15:41.659Z,0.00
2017-09-08T03:17:34.762Z,0.00
2017-09-08T03:18:34.435Z,0.00
2017-09-08T03:20:27.253Z,0.00
2017-09-08T03:21:27.214Z,0.00
2017-09-08T03:23:20.077Z,0.00
2017-09-08T03:24:20.020Z,0.00
2017-09-08T03:26:12.849Z,0.00
2017-09-08T03:27:12.803Z,0.00
2017-09-08T03:29:05.639Z,0.00
2017-09-08T03:30:05.593Z,0.00
2017-09-08T03:31:58.424Z,0.00
2017-09-08T03:32:58.377Z,0.00
2017-09-08T03:34:51.478Z,0.00
2017-09-08T03:35:51.154Z,0.00
2017-09-08T03:37:44.014Z,0.00
2017-09-08T03:38:43.982Z,0.00
2017-09-08T03:40:37.098Z,0.00
2017-09-08T03:41:36.767Z,0.00
2017-09-08T03:43:29.589Z,0.00
2017-09-08T03:44:29.554Z,0.00
2017-09-08T03:45:29.515Z,0.00
2017-09-08T03:46:29.481Z,0.00
2017-09-08T03:47:29.452Z,0.00
2017-09-08T03:48:29.414Z,0.00
2017-09-08T03:49:29.386Z,0.00
2017-09-08T03:50:29.347Z,0.00
2017-09-08T03:51:29.313Z,0.00
2017-09-08T03:52:29.291Z,0.00
2017-09-08T03:53:29.242Z,0.00
2017-09-08T03:54:29.211Z,0.00
2017-09-08T03:55:29.173Z,0.00
2017-09-08T03:56:29.142Z,0.00
2017-09-08T03:57:29.108Z,0.00
2017-09-08T03:58:29.072Z,0.00
2017-09-08T03:59:29.040Z,4.00
2017-09-08T04:00:29.001Z,4.00
2017-09-08T04:01:28.968Z,4.00
2017-09-08T04:02:28.938Z,4.00
2017-09-08T04:03:28.900Z,4.00
2017-09-08T04:04:28.870Z,0.00
2017-09-08T04:05:28.830Z,4.00
2017-09-08T04:06:28.795Z,4.00
2017-09-08T04:07:28.766Z,4.00
2017-09-08T04:08:28.728Z,4.00
2017-09-08T04:09:28.700Z,4.00
2017-09-08T04:10:28.663Z,4.00
2017-09-08T04:11:28.623Z,8.00
2017-09-08T04:12:28.588Z,4.00
2017-09-08T04:13:28.556Z,8.00
2017-09-08T04:14:28.524Z,8.00
2017-09-08T04:15:28.488Z,12.00
2017-09-08T04:16:28.453Z,12.00
2017-09-08T04:17:28.417Z,12.00
2017-09-08T04:18:28.418Z,20.00
2017-09-08T04:19:28.348Z,24.00
2017-09-08T04:20:28.314Z,36.00
2017-09-08T04:21:28.288Z,40.00
2017-09-08T04:22:28.245Z,44.00
2017-09-08T04:23:28.212Z,48.00
2017-09-08T04:24:28.178Z,56.00
2017-09-08T04:25:28.145Z,64.00
2017-09-08T04:26:28.107Z,68.00
2017-09-08T04:27:28.072Z,72.00
2017-09-08T04:28:28.040Z,76.00
2017-09-08T04:29:28.006Z,84.00
2017-09-08T04:30:27.970Z,88.00
2017-09-08T04:31:27.937Z,100.00
2017-09-08T04:32:27.903Z,112.00
2017-09-08T04:33:27.874Z,124.00
2017-09-08T04:34:27.839Z,144.00
2017-09-08T04:35:27.800Z,156.00
2017-09-08T04:36:27.768Z,168.00
2017-09-08T04:37:27.732Z,184.00
2017-09-08T04:38:27.698Z,188.00
2017-09-08T04:39:27.668Z,188.00
2017-09-08T04:40:27.629Z,184.00
2017-09-08T04:41:27.599Z,184.00
2017-09-08T04:42:27.559Z,184.00
2017-09-08T04:43:27.534Z,188.00
2017-09-08T04:44:27.515Z,188.00
2017-09-08T04:45:27.457Z,184.00
2017-09-08T04:46:27.422Z,184.00
2017-09-08T04:47:27.387Z,184.00
2017-09-08T04:48:27.353Z,180.00
2017-09-08T04:49:27.325Z,180.00
2017-09-08T04:50:27.283Z,176.00
2017-09-08T04:51:27.249Z,180.00
2017-09-08T04:52:27.238Z,192.00
2017-09-08T04:53:27.183Z,208.00
2017-09-08T04:54:27.150Z,232.00
2017-09-08T04:55:27.112Z,252.00
2017-09-08T04:56:27.088Z,280.00
2017-09-08T04:57:27.052Z,300.00
2017-09-08T04:58:27.011Z,328.00
2017-09-08T04:59:26.979Z,344.00
2017-09-08T05:00:26.941Z,364.00
2017-09-08T05:01:26.919Z,376.00
2017-09-08T05:02:26.881Z,400.00
2017-09-08T05:03:26.838Z,440.00
2017-09-08T05:04:26.803Z,488.00
2017-09-08T05:05:26.768Z,532.00
2017-09-08T05:06:26.734Z,564.00
2017-09-08T05:07:26.706Z,576.00
2017-09-08T05:08:26.668Z,584.00
2017-09-08T05:09:26.633Z,580.00
2017-09-08T05:10:26.597Z,576.00
2017-09-08T05:11:26.572Z,576.00
2017-09-08T05:12:26.539Z,584.00
2017-09-08T05:13:26.495Z,600.00
2017-09-08T05:14:26.466Z,620.00
2017-09-08T05:15:26.426Z,644.00
2017-09-08T05:16:26.393Z,668.00
2017-09-08T05:17:26.363Z,676.00
2017-09-08T05:18:26.329Z,684.00
2017-09-08T05:19:26.295Z,676.00
2017-09-08T05:20:26.259Z,664.00
2017-09-08T05:21:26.227Z,652.00
2017-09-08T05:22:26.186Z,648.00
2017-09-08T05:23:26.154Z,656.00
2017-09-08T05:24:26.132Z,672.00
2017-09-08T05:25:26.084Z,700.00
2017-09-08T05:26:26.056Z,732.00
2017-09-08T05:27:26.016Z,784.00
2017-09-08T05:28:25.988Z,868.00
2017-09-08T05:29:25.951Z,968.00
2017-09-08T05:30:25.914Z,1080.00
2017-09-08T05:31:25.886Z,1208.00
2017-09-08T05:32:25.845Z,1344.00
2017-09-08T05:33:25.812Z,1468.00
2017-09-08T05:34:25.786Z,1584.00
2017-09-08T05:35:25.743Z,1680.00
2017-09-08T05:36:25.713Z,1748.00
2017-09-08T05:37:25.674Z,1784.00
2017-09-08T05:38:25.649Z,1760.00
2017-09-08T05:39:25.608Z,1692.00
2017-09-08T05:40:25.570Z,1596.00
2017-09-08T05:41:25.542Z,1480.00
2017-09-08T05:42:25.503Z,1352.00
2017-09-08T05:43:25.470Z,1256.00
2017-09-08T05:44:25.439Z,1200.00
2017-09-08T05:45:25.404Z,1216.00
2017-09-08T05:46:25.375Z,1300.00
2017-09-08T05:47:25.334Z,1444.00
2017-09-08T05:48:25.302Z,1620.00
2017-09-08T05:49:25.266Z,1808.00
2017-09-08T05:50:25.239Z,1992.00
2017-09-08T05:51:25.199Z,2144.00
2017-09-08T05:52:25.165Z,2296.00
2017-09-08T05:53:25.132Z,2452.00
2017-09-08T05:54:25.097Z,2588.00
2017-09-08T05:55:25.059Z,2672.00
2017-09-08T05:56:25.034Z,2728.00
2017-09-08T05:57:24.992Z,2768.00
2017-09-08T05:58:24.957Z,2800.00
2017-09-08T05:59:24.927Z,2844.00
2017-09-08T06:00:24.900Z,2904.00
2017-09-08T06:01:24.858Z,3012.00
2017-09-08T06:02:24.830Z,3088.00
2017-09-08T06:03:24.794Z,3024.00
2017-09-08T06:04:24.754Z,2804.00
2017-09-08T06:05:24.721Z,2520.00
2017-09-08T06:06:24.689Z,2292.00
2017-09-08T06:07:24.659Z,2172.00
2017-09-08T06:08:24.619Z,2172.00
2017-09-08T06:09:24.585Z,2256.00
2017-09-08T06:10:24.552Z,2360.00
2017-09-08T06:11:24.536Z,2420.00
2017-09-08T06:12:24.483Z,2416.00
2017-09-08T06:13:24.452Z,2352.00
2017-09-08T06:14:24.426Z,2268.00
2017-09-08T06:15:24.383Z,2212.00
2017-09-08T06:16:24.350Z,2204.00
2017-09-08T06:17:24.319Z,2240.00
2017-09-08T06:18:24.285Z,2300.00
2017-09-08T06:19:24.247Z,2376.00
2017-09-08T06:20:24.215Z,2456.00
2017-09-08T06:21:24.181Z,2572.00
2017-09-08T06:22:24.146Z,2736.00
2017-09-08T06:23:24.119Z,2968.00
2017-09-08T06:24:24.088Z,3272.00
2017-09-08T06:25:24.045Z,3616.00
2017-09-08T06:26:24.014Z,3956.00
2017-09-08T06:27:23.977Z,4248.00
2017-09-08T06:28:23.945Z,4460.00
2017-09-08T06:29:23.909Z,4592.00
2017-09-08T06:30:23.876Z,4644.00
2017-09-08T06:31:23.842Z,4624.00
2017-09-08T06:32:23.811Z,4564.00
2017-09-08T06:33:23.776Z,4540.00
2017-09-08T06:34:23.742Z,4552.00
2017-09-08T06:35:23.708Z,4548.00
2017-09-08T06:36:23.675Z,4476.00
2017-09-08T06:37:23.652Z,4368.00
2017-09-08T06:38:23.619Z,4256.00
2017-09-08T06:39:23.579Z,4180.00
2017-09-08T06:40:23.544Z,4116.00
2017-09-08T06:41:23.507Z,4052.00
2017-09-08T06:42:23.476Z,3992.00
2017-09-08T06:43:23.441Z,3968.00
2017-09-08T06:44:23.417Z,3992.00
2017-09-08T06:45:23.374Z,4008.00
2017-09-08T06:46:23.352Z,4016.00
2017-09-08T06:47:23.306Z,4048.00
2017-09-08T06:48:23.275Z,4120.00
2017-09-08T06:49:23.243Z,4200.00
2017-09-08T06:50:23.207Z,4256.00
2017-09-08T06:51:23.174Z,4272.00
2017-09-08T06:52:23.140Z,4288.00
2017-09-08T06:53:23.115Z,4384.00
2017-09-08T06:54:23.073Z,4572.00
2017-09-08T06:55:23.041Z,4724.00
2017-09-08T06:56:23.018Z,4792.00
2017-09-08T06:57:22.987Z,4836.00
2017-09-08T06:58:22.946Z,4884.00
2017-09-08T06:59:22.906Z,4936.00
2017-09-08T07:00:22.874Z,4992.00
2017-09-08T07:01:22.840Z,5064.00
2017-09-08T07:02:22.816Z,5156.00
2017-09-08T07:03:22.778Z,5304.00
2017-09-08T07:04:22.743Z,5532.00
2017-09-08T07:05:22.714Z,5740.00
2017-09-08T07:06:22.675Z,5772.00
2017-09-08T07:07:22.647Z,5564.00
2017-09-08T07:08:22.611Z,5236.00
2017-09-08T07:09:22.577Z,5004.00
2017-09-08T07:10:22.558Z,4984.00
2017-09-08T07:11:22.509Z,5228.00
2017-09-08T07:12:22.477Z,5632.00
2017-09-08T07:13:22.440Z,5956.00
2017-09-08T07:14:22.409Z,6120.00
2017-09-08T07:15:22.376Z,6200.00
2017-09-08T07:16:22.351Z,6300.00
2017-09-08T07:17:22.313Z,6536.00
2017-09-08T07:18:22.283Z,6904.00
2017-09-08T07:19:22.245Z,7308.00
2017-09-08T07:20:22.211Z,7668.00
2017-09-08T07:21:22.180Z,7964.00
2017-09-08T07:22:22.152Z,8212.00
2017-09-08T07:23:22.118Z,8412.00
2017-09-08T07:24:22.083Z,8640.00
2017-09-08T07:25:22.052Z,8848.00
2017-09-08T07:26:22.013Z,8984.00
2017-09-08T07:27:21.981Z,9084.00
2017-09-08T07:28:21.950Z,9156.00
2017-09-08T07:29:21.918Z,9284.00
2017-09-08T07:30:21.885Z,9480.00
2017-09-08T07:31:21.854Z,9676.00
2017-09-08T07:32:21.823Z,9832.00
2017-09-08T07:33:21.788Z,9976.00
2017-09-08T07:34:21.765Z,10124.00
2017-09-08T07:35:21.721Z,10312.00
2017-09-08T07:36:21.696Z,10504.00
2017-09-08T07:37:21.662Z,10696.00
2017-09-08T07:38:21.624Z,10840.00
2017-09-08T07:39:21.593Z,10940.00
2017-09-08T07:40:21.599Z,11008.00
2017-09-08T07:41:21.530Z,11008.00
2017-09-08T07:42:21.506Z,8728.00
2017-09-08T07:43:21.466Z,10728.00
2017-09-08T07:44:21.451Z,10808.00
2017-09-08T07:45:21.404Z,10820.00
2017-09-08T07:46:21.376Z,10896.00
2017-09-08T07:47:21.337Z,11000.00
2017-09-08T07:48:21.305Z,11132.00
2017-09-08T07:49:21.273Z,11264.00
2017-09-08T07:50:21.241Z,11420.00
2017-09-08T07:51:21.209Z,11568.00
2017-09-08T07:52:21.179Z,11704.00
2017-09-08T07:53:21.149Z,11760.00
2017-09-08T07:54:21.206Z,11780.00
2017-09-08T07:55:21.185Z,11792.00
2017-09-08T07:56:21.122Z,11788.00
2017-09-08T07:57:21.121Z,11792.00
2017-09-08T07:58:21.099Z,11776.00
2017-09-08T07:59:21.061Z,11744.00
2017-09-08T08:00:21.015Z,11700.00
2017-09-08T08:01:20.987Z,11664.00
2017-09-08T08:02:20.863Z,11652.00
2017-09-08T08:03:20.836Z,11644.00
2017-09-08T08:04:20.802Z,11700.00
2017-09-08T08:05:20.775Z,11784.00
2017-09-08T08:06:20.744Z,11824.00
2017-09-08T08:07:20.707Z,11768.00
2017-09-08T08:08:20.684Z,11536.00
2017-09-08T08:09:20.648Z,11204.00
2017-09-08T08:10:20.626Z,10964.00
2017-09-08T08:11:20.585Z,10852.00
2017-09-08T08:12:20.555Z,10900.00
2017-09-08T08:13:20.520Z,10948.00
2017-09-08T08:14:20.490Z,10992.00
2017-09-08T08:15:20.459Z,11092.00
2017-09-08T08:16:20.433Z,11184.00
2017-09-08T08:17:20.404Z,11308.00
2017-09-08T08:18:20.368Z,11420.00
2017-09-08T08:19:20.335Z,11492.00
2017-09-08T08:20:20.318Z,11552.00
2017-09-08T08:21:20.332Z,11560.00
2017-09-08T08:22:21.243Z,11396.00
2017-09-08T08:23:20.212Z,11092.00
2017-09-08T08:24:20.181Z,10704.00
2017-09-08T08:25:20.148Z,10272.00
2017-09-08T08:26:20.118Z,9812.00
2017-09-08T08:27:20.088Z,9340.00
2017-09-08T08:28:20.059Z,8848.00
2017-09-08T08:29:20.032Z,8364.00
2017-09-08T08:30:19.994Z,7988.00
2017-09-08T08:31:19.973Z,7812.00
2017-09-08T08:32:19.934Z,7828.00
2017-09-08T08:33:19.910Z,7944.00
2017-09-08T08:34:19.870Z,8108.00
2017-09-08T08:35:19.838Z,8264.00
2017-09-08T08:36:19.821Z,8400.00
2017-09-08T08:37:19.777Z,8540.00
2017-09-08T08:38:19.748Z,8732.00
2017-09-08T08:39:19.719Z,8956.00
2017-09-08T08:40:19.693Z,9212.00
2017-09-08T08:41:19.658Z,9388.00
2017-09-08T08:42:19.622Z,9396.00
2017-09-08T08:43:19.595Z,9320.00
2017-09-08T08:44:19.566Z,9288.00
2017-09-08T08:45:19.537Z,9256.00
2017-09-08T08:46:19.500Z,9128.00
2017-09-08T08:47:19.467Z,8892.00
2017-09-08T08:48:19.438Z,8580.00
2017-09-08T08:49:19.408Z,8212.00
2017-09-08T08:50:19.376Z,7852.00
2017-09-08T08:51:19.347Z,7464.00
2017-09-08T08:52:19.313Z,7020.00
2017-09-08T08:53:19.300Z,6600.00
2017-09-08T08:54:19.250Z,6248.00
2017-09-08T08:55:19.223Z,6008.00
2017-09-08T08:56:19.202Z,5864.00
2017-09-08T08:57:19.163Z,5812.00
2017-09-08T08:58:19.127Z,5804.00
2017-09-08T08:59:19.100Z,5800.00
2017-09-08T09:00:19.064Z,5788.00
2017-09-08T09:01:19.038Z,5792.00
2017-09-08T09:02:19.002Z,5876.00
2017-09-08T09:03:18.990Z,6076.00
2017-09-08T09:04:18.941Z,6364.00
2017-09-08T09:05:18.909Z,6648.00
2017-09-08T09:06:18.953Z,6800.00
2017-09-08T09:07:18.847Z,6916.00
2017-09-08T09:08:18.838Z,7064.00
2017-09-08T09:09:18.786Z,7312.00
2017-09-08T09:10:18.756Z,7660.00
2017-09-08T09:11:18.723Z,8016.00
2017-09-08T09:12:18.762Z,8304.00
2017-09-08T09:13:18.660Z,8528.00
2017-09-08T09:14:18.622Z,8776.00
2017-09-08T09:15:18.594Z,8968.00
2017-09-08T09:16:18.602Z,9036.00
2017-09-08T09:17:18.537Z,8992.00
2017-09-08T09:18:18.501Z,8864.00
2017-09-08T09:19:18.471Z,8684.00
2017-09-08T09:20:18.445Z,8516.00
2017-09-08T09:21:18.445Z,8356.00
2017-09-08T09:22:18.427Z,8208.00
2017-09-08T09:23:18.353Z,8088.00
2017-09-08T09:24:18.324Z,8044.00
2017-09-08T09:25:18.284Z,8056.00
2017-09-08T09:26:18.260Z,8112.00
2017-09-08T09:27:18.222Z,8216.00
2017-09-08T09:28:18.198Z,8376.00
2017-09-08T09:29:18.156Z,8564.00
2017-09-08T09:30:18.127Z,8804.00
2017-09-08T09:31:18.093Z,9100.00
2017-09-08T09:32:18.065Z,9448.00
2017-09-08T09:33:18.032Z,9760.00
2017-09-08T09:34:18.017Z,10012.00
2017-09-08T09:35:17.974Z,10176.00
2017-09-08T09:36:17.949Z,10280.00
2017-09-08T09:37:17.916Z,10352.00
2017-09-08T09:38:17.910Z,10384.00
2017-09-08T09:39:17.859Z,10412.00
2017-09-08T09:40:17.816Z,10492.00
2017-09-08T09:41:17.786Z,10680.00
2017-09-08T09:42:17.749Z,10972.00
2017-09-08T09:43:17.728Z,11356.00
2017-09-08T09:44:17.691Z,11760.00
2017-09-08T09:45:17.670Z,12076.00
2017-09-08T09:46:17.638Z,12264.00
2017-09-08T09:47:17.606Z,12320.00
2017-09-08T09:48:17.575Z,12216.00
2017-09-08T09:49:17.543Z,11976.00
2017-09-08T09:50:17.505Z,11488.00
2017-09-08T09:51:17.482Z,10820.00
2017-09-08T09:52:17.457Z,10152.00
2017-09-08T09:53:17.417Z,9572.00
2017-09-08T09:54:17.392Z,9012.00
2017-09-08T09:55:17.353Z,8620.00
2017-09-08T09:56:17.332Z,8412.00
2017-09-08T09:57:17.294Z,8384.00
2017-09-08T09:58:17.265Z,8476.00
2017-09-08T09:59:17.232Z,8560.00
2017-09-08T10:00:17.205Z,8584.00
2017-09-08T10:01:17.171Z,8520.00
2017-09-08T10:02:17.151Z,8336.00
2017-09-08T10:03:17.113Z,8084.00
2017-09-08T10:04:17.080Z,7864.00
2017-09-08T10:05:17.052Z,7760.00
2017-09-08T10:06:17.018Z,7828.00
2017-09-08T10:07:16.996Z,7972.00
2017-09-08T10:08:16.960Z,8100.00
2017-09-08T10:09:16.934Z,8268.00
2017-09-08T10:10:16.899Z,8472.00
2017-09-08T10:11:16.872Z,8608.00
2017-09-08T10:12:16.845Z,8628.00
2017-09-08T10:13:16.806Z,8564.00
2017-09-08T10:14:16.809Z,8544.00
2017-09-08T10:15:16.761Z,8592.00
2017-09-08T10:16:16.722Z,8592.00
2017-09-08T10:17:16.683Z,8544.00
2017-09-08T10:18:16.651Z,8404.00
2017-09-08T10:19:16.623Z,8132.00
2017-09-08T10:20:16.604Z,7804.00
2017-09-08T10:21:16.569Z,7468.00
2017-09-08T10:22:16.542Z,7204.00
2017-09-08T10:23:16.505Z,7104.00
2017-09-08T10:24:16.470Z,7136.00
2017-09-08T10:25:16.437Z,7244.00
2017-09-08T10:26:16.412Z,7368.00
2017-09-08T10:27:16.377Z,7500.00
2017-09-08T10:28:16.347Z,7588.00
2017-09-08T10:29:16.316Z,7580.00
2017-09-08T10:30:16.283Z,7476.00
2017-09-08T10:31:16.263Z,7300.00
2017-09-08T10:32:16.225Z,7100.00
2017-09-08T10:33:16.212Z,7000.00
2017-09-08T10:34:16.162Z,6952.00
2017-09-08T10:35:16.132Z,6952.00
2017-09-08T10:36:16.101Z,7044.00
2017-09-08T10:37:16.106Z,7288.00
2017-09-08T10:38:16.042Z,7592.00
2017-09-08T10:39:16.010Z,7760.00
2017-09-08T10:40:15.979Z,7736.00
2017-09-08T10:41:15.972Z,7780.00
2017-09-08T10:42:15.921Z,8080.00
2017-09-08T10:43:15.897Z,8480.00
2017-09-08T10:44:15.860Z,8776.00
2017-09-08T10:45:15.828Z,9044.00
2017-09-08T10:46:15.795Z,9248.00
2017-09-08T10:47:15.770Z,9428.00
2017-09-08T10:48:15.746Z,9632.00
2017-09-08T10:49:15.719Z,9892.00
2017-09-08T10:50:15.675Z,10100.00
2017-09-08T10:51:15.648Z,10292.00
2017-09-08T10:52:15.625Z,10516.00
2017-09-08T10:53:15.582Z,10664.00
2017-09-08T10:54:15.557Z,10664.00
2017-09-08T10:55:15.531Z,10476.00
2017-09-08T10:56:15.496Z,10200.00
2017-09-08T10:57:15.464Z,9952.00
2017-09-08T10:58:15.442Z,9780.00
2017-09-08T10:59:15.400Z,9660.00
2017-09-08T11:00:15.376Z,9696.00
2017-09-08T11:01:15.344Z,10052.00
2017-09-08T11:02:15.308Z,10440.00
2017-09-08T11:03:15.284Z,10716.00
2017-09-08T11:04:15.254Z,10996.00
2017-09-08T11:05:15.228Z,11248.00
2017-09-08T11:06:15.187Z,11464.00
2017-09-08T11:07:15.167Z,11712.00
2017-09-08T11:08:15.127Z,12108.00
2017-09-08T11:09:15.094Z,12548.00
2017-09-08T11:10:15.075Z,12868.00
2017-09-08T11:11:15.047Z,12860.00
2017-09-08T11:12:15.008Z,12624.00
2017-09-08T11:13:14.977Z,12400.00
2017-09-08T11:14:14.950Z,12320.00
2017-09-08T11:15:14.917Z,12268.00
2017-09-08T11:16:14.888Z,12176.00
2017-09-08T11:17:14.860Z,11948.00
2017-09-08T11:18:14.835Z,11668.00
2017-09-08T11:19:14.799Z,11476.00
2017-09-08T11:20:14.769Z,11412.00
2017-09-08T11:21:14.739Z,11364.00
2017-09-08T11:22:14.705Z,11280.00
2017-09-08T11:23:14.681Z,11176.00
2017-09-08T11:24:14.649Z,11140.00
2017-09-08T11:25:14.622Z,11172.00
2017-09-08T11:26:14.587Z,11220.00
2017-09-08T11:27:14.561Z,11288.00
2017-09-08T11:28:14.530Z,11316.00
2017-09-08T11:29:14.502Z,11216.00
2017-09-08T11:30:14.473Z,11060.00
2017-09-08T11:31:14.441Z,10968.00
2017-09-08T11:32:14.452Z,10972.00
2017-09-08T11:33:14.383Z,11028.00
2017-09-08T11:34:14.351Z,11140.00
2017-09-08T11:35:14.322Z,11312.00
2017-09-08T11:36:14.294Z,11440.00
2017-09-08T11:37:14.265Z,11384.00
2017-09-08T11:38:14.406Z,11108.00
2017-09-08T11:39:14.204Z,10812.00
2017-09-08T11:40:14.180Z,10676.00
2017-09-08T11:41:14.154Z,10664.00
2017-09-08T11:42:14.126Z,10776.00
2017-09-08T11:43:14.085Z,10964.00
2017-09-08T11:44:14.077Z,11172.00
2017-09-08T11:45:14.025Z,11376.00
2017-09-08T11:46:13.998Z,11580.00
2017-09-08T11:47:13.967Z,11756.00
2017-09-08T11:48:13.937Z,11828.00
2017-09-08T11:49:13.913Z,11788.00
2017-09-08T11:50:13.888Z,11676.00
2017-09-08T11:51:13.853Z,11540.00
2017-09-08T11:52:13.831Z,11376.00
2017-09-08T11:53:13.796Z,11292.00
2017-09-08T11:54:13.777Z,11288.00
2017-09-08T11:55:13.746Z,11272.00
2017-09-08T11:56:13.705Z,11212.00
2017-09-08T11:57:13.673Z,11104.00
2017-09-08T11:58:13.647Z,10988.00
2017-09-08T11:59:13.625Z,10892.00
2017-09-08T12:00:13.585Z,10784.00
2017-09-08T12:01:13.557Z,10664.00
2017-09-08T12:02:13.528Z,10588.00
2017-09-08T12:03:13.498Z,10512.00
2017-09-08T12:04:13.476Z,10432.00
2017-09-08T12:05:13.439Z,10324.00
2017-09-08T12:06:13.410Z,10204.00
2017-09-08T12:07:13.381Z,10092.00
2017-09-08T12:08:13.356Z,9968.00
2017-09-08T12:09:13.324Z,9800.00
2017-09-08T12:10:13.295Z,9612.00
2017-09-08T12:11:13.265Z,9408.00
2017-09-08T12:12:13.244Z,9276.00
2017-09-08T12:13:13.213Z,9208.00
2017-09-08T12:14:13.174Z,9228.00
2017-09-08T12:15:13.165Z,9272.00
2017-09-08T12:16:13.117Z,9316.00
2017-09-08T12:17:13.095Z,9304.00
2017-09-08T12:18:13.075Z,9284.00
2017-09-08T12:19:13.029Z,9228.00
2017-09-08T12:20:13.000Z,9188.00
2017-09-08T12:21:12.969Z,9108.00
2017-09-08T12:22:12.940Z,8988.00
2017-09-08T12:23:12.927Z,8836.00
2017-09-08T12:24:12.909Z,8672.00
2017-09-08T12:25:12.857Z,8500.00
2017-09-08T12:26:12.831Z,8336.00
2017-09-08T12:27:12.795Z,8184.00
2017-09-08T12:28:12.762Z,8008.00
2017-09-08T12:29:12.737Z,7816.00
2017-09-08T12:30:12.704Z,7600.00
2017-09-08T12:31:12.674Z,7384.00
2017-09-08T12:32:12.657Z,7180.00
2017-09-08T12:33:12.623Z,7024.00
2017-09-08T12:34:12.587Z,6944.00
2017-09-08T12:35:12.556Z,6956.00
2017-09-08T12:36:12.527Z,7040.00
2017-09-08T12:37:12.498Z,7208.00
2017-09-08T12:38:12.467Z,7364.00
2017-09-08T12:39:12.440Z,7524.00
2017-09-08T12:40:12.411Z,7684.00
2017-09-08T12:41:12.385Z,7828.00
2017-09-08T12:42:12.351Z,7952.00
2017-09-08T12:43:12.320Z,8036.00
2017-09-08T12:44:12.308Z,8068.00
2017-09-08T12:45:12.259Z,8144.00
2017-09-08T12:46:12.240Z,8264.00
2017-09-08T12:47:12.201Z,8392.00
2017-09-08T12:48:12.173Z,8456.00
2017-09-08T12:49:12.143Z,8428.00
2017-09-08T12:50:12.113Z,8344.00
2017-09-08T12:51:12.081Z,8260.00
2017-09-08T12:52:12.053Z,8192.00
2017-09-08T12:53:12.028Z,8068.00
2017-09-08T12:54:11.992Z,7912.00
2017-09-08T12:55:11.962Z,7768.00
2017-09-08T12:56:11.963Z,7636.00
2017-09-08T12:57:11.902Z,7468.00
2017-09-08T12:58:11.877Z,7304.00
2017-09-08T12:59:11.844Z,7052.00
2017-09-08T13:00:11.821Z,6760.00
2017-09-08T13:01:11.790Z,6508.00
2017-09-08T13:02:11.786Z,6344.00
2017-09-08T13:03:11.723Z,6220.00
2017-09-08T13:04:11.694Z,6096.00
2017-09-08T13:05:11.663Z,6044.00
2017-09-08T13:06:11.634Z,6160.00
2017-09-08T13:07:11.609Z,6328.00
2017-09-08T13:08:11.587Z,6416.00
2017-09-08T13:09:11.543Z,6364.00
2017-09-08T13:10:11.512Z,6248.00
2017-09-08T13:11:11.483Z,6192.00